Time;durP1;ratioP1;P1;durP2;ratioP2;P2;SDS_P1;SDS_P2;PMS_P1;PMS_P2;Temp;Humidity;BMP_temperature;BMP_pressure;BME280_temperature;BME280_humidity;BME280_pressure;Samples;Min_cycle;Max_cycle;Signal;HPM_P1;HPM_P2
2021/12/21 00:00:51;;;;;;;9.30;4.68;;;;;;;;;;5033897;28;20090;-71
2021/12/21 00:03:16;;;;;;;7.63;4.90;;;;;;;;;;5033703;28;20160;-69
2021/12/21 00:05:42;;;;;;;9.52;4.78;;;;;;;;;;5033445;28;20393;-72
2021/12/21 00:08:11;;;;;;;9.82;4.70;;;;;;;;;;5033452;28;20685;-71
2021/12/21 00:10:38;;;;;;;8.57;5.18;;;;;;;;;;5033504;28;20029;-71
2021/12/21 00:13:57;;;;;;;9.00;4.85;;;;;;;;;;5033456;28;20045;-70
2021/12/21 00:26:19;;;;;;;8.32;4.70;;;;;;;;;;5032800;28;20041;-71
2021/12/21 00:29:01;;;;;;;8.68;4.90;;;;;;;;;;5033371;28;20037;-71
2021/12/21 00:31:32;;;;;;;10.35;5.50;;;;;;;;;;5033250;28;20369;-72
2021/12/21 00:33:57;;;;;;;;;;;;;;;;;;5033696;28;20021;-69
2021/12/21 00:36:24;;;;;;;14.00;6.70;;;;;;;;;;5026949;28;19970;-71
2021/12/21 00:38:52;;;;;;;14.77;6.43;;;;;;;;;;5032692;28;20432;-71
2021/12/21 00:41:18;;;;;;;10.93;5.68;;;;;;;;;;5032737;28;20408;-71
2021/12/21 00:43:43;;;;;;;11.77;5.47;;;;;;;;;;5032976;28;20523;-71
2021/12/21 00:46:09;;;;;;;22.08;7.80;;;;;;;;;;5032494;28;20021;-71
2021/12/21 00:48:36;;;;;;;13.55;6.13;;;;;;;;;;5032933;28;20025;-70
2021/12/21 00:51:07;;;;;;;9.77;5.40;;;;;;;;;;5032738;28;20685;-70
2021/12/21 00:53:37;;;;;;;12.65;5.32;;;;;;;;;;5032867;28;20022;-71
2021/12/21 00:56:03;;;;;;;10.25;5.18;;;;;;;;;;5032255;28;20032;-70
2021/12/21 00:58:29;;;;;;;8.90;4.82;;;;;;;;;;5032566;28;20385;-71
2021/12/21 01:00:54;;;;;;;8.13;4.82;;;;;;;;;;5032908;28;20535;-71
2021/12/21 01:03:20;;;;;;;9.32;4.85;;;;;;;;;;5032355;28;20030;-70
2021/12/21 01:09:05;;;;;;;9.13;4.82;;;;;;;;;;5022965;28;20033;-70
2021/12/21 01:11:36;;;;;;;7.72;4.28;;;;;;;;;;5031793;28;20030;-70
2021/12/21 01:16:57;;;;;;;9.07;4.35;;;;;;;;;;5032137;28;20029;-70
2021/12/21 01:19:31;;;;;;;8.55;4.13;;;;;;;;;;5032373;28;20028;-70
2021/12/21 01:22:06;;;;;;;7.90;4.22;;;;;;;;;;5032425;28;20021;-70
2021/12/21 01:28:04;;;;;;;8.27;4.63;;;;;;;;;;5031885;28;20400;-70
2021/12/21 01:35:38;;;;;;;8.32;4.40;;;;;;;;;;5031445;28;20037;-70
2021/12/21 01:37:52;;;;;;;9.15;4.80;;;;;;;;;;5026014;28;20595;-71
2021/12/21 01:40:28;;;;;;;7.47;4.30;;;;;;;;;;5031620;28;20026;-70
2021/12/21 01:43:11;;;;;;;9.15;4.50;;;;;;;;;;5031926;28;20033;-68
2021/12/21 01:51:07;;;;;;;11.35;4.88;;;;;;;;;;5031921;28;20044;-71
2021/12/21 01:53:34;;;;;;;9.88;4.38;;;;;;;;;;5031832;28;20036;-70
2021/12/21 01:56:00;;;;;;;6.97;4.20;;;;;;;;;;5030906;28;20064;-70
2021/12/21 01:58:26;;;;;;;7.57;4.57;;;;;;;;;;5031766;28;20060;-70
2021/12/21 02:00:51;;;;;;;7.18;4.40;;;;;;;;;;5031638;28;20126;-70
2021/12/21 02:03:17;;;;;;;10.88;4.28;;;;;;;;;;5032024;28;20026;-70
2021/12/21 02:05:43;;;;;;;6.35;4.00;;;;;;;;;;5030948;28;20025;-70
2021/12/21 02:08:08;;;;;;;8.30;4.28;;;;;;;;;;5031361;28;20031;-70
2021/12/21 02:10:34;;;;;;;9.77;4.68;;;;;;;;;;5031222;28;20040;-70
2021/12/21 02:13:01;;;;;;;7.38;4.20;;;;;;;;;;5031199;28;20048;-70
2021/12/21 02:15:27;;;;;;;5.68;3.70;;;;;;;;;;5031149;28;20634;-71
2021/12/21 02:20:26;;;;;;;7.47;4.25;;;;;;;;;;5031155;28;20030;-71
2021/12/21 02:23:08;;;;;;;7.90;4.22;;;;;;;;;;5031064;28;20040;-70
2021/12/21 02:30:46;;;;;;;8.30;3.97;;;;;;;;;;5031143;28;20033;-70
2021/12/21 02:33:13;;;;;;;6.70;4.10;;;;;;;;;;5030962;28;20527;-69
2021/12/21 02:35:40;;;;;;;8.10;4.40;;;;;;;;;;5030874;28;20482;-71
2021/12/21 02:38:06;;;;;;;8.00;4.22;;;;;;;;;;5030684;28;20018;-70
2021/12/21 02:40:32;;;;;;;7.78;4.13;;;;;;;;;;5030415;28;20789;-70
2021/12/21 02:42:57;;;;;;;7.10;4.32;;;;;;;;;;5030902;28;20543;-70
2021/12/21 02:45:23;;;;;;;7.70;3.95;;;;;;;;;;5030324;28;20057;-70
2021/12/21 02:47:49;;;;;;;7.70;3.97;;;;;;;;;;5030615;28;20041;-70
2021/12/21 02:50:14;;;;;;;7.75;4.88;;;;;;;;;;5030820;28;20064;-70
2021/12/21 02:52:40;;;;;;;8.27;4.13;;;;;;;;;;5030392;28;20068;-70
2021/12/21 02:55:08;;;;;;;7.35;4.20;;;;;;;;;;5030134;28;20113;-70
2021/12/21 02:57:34;;;;;;;7.55;4.30;;;;;;;;;;5030221;28;20025;-69
2021/12/21 03:00:01;;;;;;;6.88;4.40;;;;;;;;;;5030620;28;20406;-71
2021/12/21 03:02:27;;;;;;;8.88;4.15;;;;;;;;;;5030426;28;20071;-70
2021/12/21 03:04:54;;;;;;;6.93;3.95;;;;;;;;;;5030438;28;20609;-70
2021/12/21 03:09:56;;;;;;;9.07;3.90;;;;;;;;;;5030140;28;20037;-70
2021/12/21 03:14:48;;;;;;;7.32;4.43;;;;;;;;;;5030201;28;20033;-76
2021/12/21 03:17:14;;;;;;;7.53;3.95;;;;;;;;;;5030206;28;20033;-71
2021/12/21 03:19:40;;;;;;;6.85;4.10;;;;;;;;;;5030291;28;20667;-72
2021/12/21 03:22:07;;;;;;;6.03;4.03;;;;;;;;;;5030381;28;20032;-71
2021/12/21 03:24:33;;;;;;;7.18;3.95;;;;;;;;;;5030159;28;20393;-70
2021/12/21 03:26:59;;;;;;;6.38;3.80;;;;;;;;;;5029499;28;20068;-70
2021/12/21 03:29:25;;;;;;;7.95;4.03;;;;;;;;;;5029533;28;20045;-69
2021/12/21 03:31:51;;;;;;;6.90;3.85;;;;;;;;;;5030039;28;20059;-70
2021/12/21 03:34:17;;;;;;;8.27;4.10;;;;;;;;;;5030138;28;20482;-71
2021/12/21 03:36:43;;;;;;;7.35;4.00;;;;;;;;;;5029785;28;20482;-70
2021/12/21 03:39:16;;;;;;;10.15;4.32;;;;;;;;;;5030219;28;20033;-70
2021/12/21 03:41:46;;;;;;;6.80;3.88;;;;;;;;;;5029784;28;20075;-71
2021/12/21 03:44:12;;;;;;;8.55;4.28;;;;;;;;;;5029968;28;20045;-70
2021/12/21 03:46:45;;;;;;;8.70;4.32;;;;;;;;;;5029548;28;20022;-70
2021/12/21 03:50:00;;;;;;;8.00;4.30;;;;;;;;;;5029867;28;20022;-70
2021/12/21 03:51:57;;;;;;;6.68;3.97;;;;;;;;;;5019135;28;20642;-70
2021/12/21 03:54:23;;;;;;;6.72;4.40;;;;;;;;;;5029948;28;20112;-70
2021/12/21 03:56:51;;;;;;;10.07;4.07;;;;;;;;;;5029394;28;20520;-70
2021/12/21 03:59:17;;;;;;;10.20;4.40;;;;;;;;;;5030028;28;20034;-70
2021/12/21 04:01:43;;;;;;;7.30;4.13;;;;;;;;;;5029805;28;20033;-70
2021/12/21 04:04:08;;;;;;;7.70;4.43;;;;;;;;;;5029787;28;20090;-71
2021/12/21 04:06:35;;;;;;;7.10;4.20;;;;;;;;;;5029334;28;20030;-70
2021/12/21 04:09:02;;;;;;;7.80;4.07;;;;;;;;;;5029770;28;20455;-70
2021/12/21 04:11:28;;;;;;;7.93;3.90;;;;;;;;;;5029724;28;20095;-70
2021/12/21 04:13:53;;;;;;;6.70;3.90;;;;;;;;;;5029797;28;20038;-71
2021/12/21 04:16:19;;;;;;;6.97;3.75;;;;;;;;;;5029459;28;20108;-71
2021/12/21 04:18:44;;;;;;;10.45;4.10;;;;;;;;;;5029649;28;20029;-71
2021/12/21 04:21:12;;;;;;;6.72;3.80;;;;;;;;;;5029607;28;20060;-70
2021/12/21 04:23:39;;;;;;;8.38;4.30;;;;;;;;;;5029700;28;20056;-72
2021/12/21 04:26:05;;;;;;;7.60;4.03;;;;;;;;;;5029323;28;20031;-70
2021/12/21 04:28:30;;;;;;;7.93;4.45;;;;;;;;;;5029491;28;20105;-71
2021/12/21 04:30:55;;;;;;;8.90;4.38;;;;;;;;;;5029662;28;20075;-71
2021/12/21 04:33:21;;;;;;;7.65;4.15;;;;;;;;;;5029546;28;20033;-71
2021/12/21 04:35:46;;;;;;;7.68;4.13;;;;;;;;;;5029288;28;20032;-69
2021/12/21 04:38:20;;;;;;;7.57;4.47;;;;;;;;;;5029274;28;20034;-69
2021/12/21 04:40:54;;;;;;;9.13;4.30;;;;;;;;;;5029359;28;20065;-69
2021/12/21 04:43:19;;;;;;;7.95;3.83;;;;;;;;;;5032182;28;20021;-69
2021/12/21 04:45:45;;;;;;;7.93;4.40;;;;;;;;;;5032821;28;20111;-71
2021/12/21 04:48:11;;;;;;;11.35;4.30;;;;;;;;;;5032829;28;20030;-70
2021/12/21 04:50:36;;;;;;;5.88;3.83;;;;;;;;;;5032833;28;20034;-70
2021/12/21 04:53:02;;;;;;;8.75;4.05;;;;;;;;;;5032678;28;20033;-70
2021/12/21 04:55:27;;;;;;;7.72;4.50;;;;;;;;;;5032645;28;20040;-70
2021/12/21 04:57:53;;;;;;;8.40;3.72;;;;;;;;;;5032595;28;20370;-70
2021/12/21 05:00:18;;;;;;;9.25;4.07;;;;;;;;;;5032721;28;20141;-70
2021/12/21 05:02:44;;;;;;;7.70;4.03;;;;;;;;;;5032758;28;20088;-70
2021/12/21 05:05:10;;;;;;;7.32;4.30;;;;;;;;;;5032525;28;20040;-70
2021/12/21 05:07:38;;;;;;;7.78;3.85;;;;;;;;;;5032099;28;20037;-70
2021/12/21 05:10:06;;;;;;;7.32;4.30;;;;;;;;;;5032369;28;20469;-71
2021/12/21 05:12:31;;;;;;;8.48;4.20;;;;;;;;;;5032212;28;20547;-70
2021/12/21 05:14:57;;;;;;;7.72;4.10;;;;;;;;;;5032530;28;20026;-70
2021/12/21 05:17:23;;;;;;;7.82;4.20;;;;;;;;;;5032060;28;20021;-70
2021/12/21 05:19:48;;;;;;;6.38;3.78;;;;;;;;;;5032401;28;20485;-70
2021/12/21 05:22:15;;;;;;;7.63;3.60;;;;;;;;;;5032525;28;20470;-70
2021/12/21 05:24:42;;;;;;;7.30;4.15;;;;;;;;;;5032063;28;20072;-70
2021/12/21 05:27:08;;;;;;;9.23;4.13;;;;;;;;;;5031730;28;20033;-71
2021/12/21 05:29:33;;;;;;;7.70;3.83;;;;;;;;;;5032151;28;20025;-70
2021/12/21 05:31:59;;;;;;;7.57;4.32;;;;;;;;;;5014396;28;20030;-69
2021/12/21 05:34:26;;;;;;;7.30;4.15;;;;;;;;;;5032077;28;20682;-71
2021/12/21 05:36:52;;;;;;;9.35;4.38;;;;;;;;;;5031737;28;20473;-71
2021/12/21 05:39:22;;;;;;;9.15;3.90;;;;;;;;;;5032102;28;20029;-69
2021/12/21 05:41:55;;;;;;;6.88;3.78;;;;;;;;;;5031362;28;20037;-71
2021/12/21 05:44:24;;;;;;;7.88;4.38;;;;;;;;;;5031892;28;20224;-71
2021/12/21 05:46:51;;;;;;;11.57;4.13;;;;;;;;;;5031431;28;20032;-71
2021/12/21 05:49:17;;;;;;;7.78;3.97;;;;;;;;;;5031830;28;20025;-71
2021/12/21 05:51:43;;;;;;;8.13;4.32;;;;;;;;;;5031758;28;20023;-70
2021/12/21 05:54:09;;;;;;;7.15;4.45;;;;;;;;;;5031440;28;20129;-71
2021/12/21 05:56:35;;;;;;;6.57;4.10;;;;;;;;;;5031221;28;20117;-70
2021/12/21 05:59:02;;;;;;;11.95;5.05;;;;;;;;;;5031566;28;20014;-69
2021/12/21 06:01:29;;;;;;;9.07;5.00;;;;;;;;;;5027150;28;20508;-70
2021/12/21 06:03:55;;;;;;;10.32;5.43;;;;;;;;;;5030021;28;20029;-70
2021/12/21 06:06:20;;;;;;;10.73;4.93;;;;;;;;;;5022380;28;20212;-70
2021/12/21 06:08:47;;;;;;;9.45;5.28;;;;;;;;;;5031170;28;20033;-70
2021/12/21 06:11:14;;;;;;;9.07;5.03;;;;;;;;;;5031133;28;20025;-71
2021/12/21 06:14:12;;;;;;;10.73;5.15;;;;;;;;;;5030837;28;20386;-70
2021/12/21 06:27:30;;;;;;;12.07;5.30;;;;;;;;;;5030355;28;20036;-71
2021/12/21 06:29:56;;;;;;;10.70;4.70;;;;;;;;;;5030640;28;20018;-69
2021/12/21 06:32:21;;;;;;;9.50;4.90;;;;;;;;;;5030825;28;20025;-71
2021/12/21 06:34:47;;;;;;;11.15;4.82;;;;;;;;;;5030552;28;20155;-70
2021/12/21 06:37:12;;;;;;;11.60;5.03;;;;;;;;;;5031549;28;20580;-70
2021/12/21 06:39:38;;;;;;;11.63;5.47;;;;;;;;;;5030344;28;20025;-70
2021/12/21 06:42:04;;;;;;;10.15;5.07;;;;;;;;;;5030536;28;20409;-70
2021/12/21 06:44:30;;;;;;;10.93;5.20;;;;;;;;;;5030430;28;20033;-70
2021/12/21 06:52:19;;;;;;;9.55;4.75;;;;;;;;;;5030499;28;20088;-70
2021/12/21 06:54:44;;;;;;;8.95;4.97;;;;;;;;;;5030097;28;20060;-71
2021/12/21 06:57:10;;;;;;;9.48;4.70;;;;;;;;;;5030074;28;20065;-70
2021/12/21 06:59:35;;;;;;;9.07;4.72;;;;;;;;;;5030131;28;20025;-70
2021/12/21 07:02:01;;;;;;;7.63;4.15;;;;;;;;;;5030414;28;20091;-71
2021/12/21 07:04:27;;;;;;;8.68;4.78;;;;;;;;;;5029703;28;20030;-70
2021/12/21 07:06:54;;;;;;;12.07;4.93;;;;;;;;;;5029853;28;20033;-70
2021/12/21 07:11:53;;;;;;;7.53;4.43;;;;;;;;;;5030058;28;20446;-70
2021/12/21 07:19:47;;;;;;;7.25;4.60;;;;;;;;;;5030307;28;20117;-70
2021/12/21 07:22:13;;;;;;;14.43;5.30;;;;;;;;;;5030340;28;20108;-70
2021/12/21 07:24:40;;;;;;;11.25;4.78;;;;;;;;;;5029958;28;20061;-69
2021/12/21 07:27:06;;;;;;;8.07;4.68;;;;;;;;;;5029670;28;20021;-71
2021/12/21 07:29:31;;;;;;;9.48;5.20;;;;;;;;;;5033257;28;20029;-70
2021/12/21 07:31:57;;;;;;;9.10;5.03;;;;;;;;;;5030194;28;20021;-71
2021/12/21 07:34:22;;;;;;;10.90;5.10;;;;;;;;;;5030084;28;20092;-70
2021/12/21 07:36:48;;;;;;;11.02;6.15;;;;;;;;;;5030067;28;20025;-71
2021/12/21 07:39:17;;;;;;;15.70;6.35;;;;;;;;;;5029634;28;20108;-70
2021/12/21 07:41:43;;;;;;;15.57;5.40;;;;;;;;;;5029702;28;20037;-70
2021/12/21 07:44:09;;;;;;;13.07;5.57;;;;;;;;;;5029763;28;20061;-69
2021/12/21 07:46:35;;;;;;;11.90;6.07;;;;;;;;;;5029771;28;20064;-71
2021/12/21 07:49:01;;;;;;;37.67;19.73;;;;;;;;;;5029562;28;20535;-71
2021/12/21 07:51:26;;;;;;;24.33;12.52;;;;;;;;;;5029838;28;20025;-71
2021/12/21 07:53:52;;;;;;;24.02;13.88;;;;;;;;;;5029968;28;20033;-71
2021/12/21 07:56:17;;;;;;;21.92;10.35;;;;;;;;;;5029899;28;20029;-69
2021/12/21 07:58:45;;;;;;;15.82;8.85;;;;;;;;;;5029390;28;20029;-71
2021/12/21 08:01:11;;;;;;;15.57;8.77;;;;;;;;;;5029540;28;20029;-70
2021/12/21 08:03:37;;;;;;;15.60;8.30;;;;;;;;;;5029646;28;20109;-71
2021/12/21 08:06:06;;;;;;;15.23;7.65;;;;;;;;;;5029962;28;20556;-71
2021/12/21 08:08:34;;;;;;;18.02;7.35;;;;;;;;;;5029267;28;20032;-71
2021/12/21 08:14:05;;;;;;;27.65;11.43;;;;;;;;;;4968110;28;20054;-71
2021/12/21 08:16:31;;;;;;;19.77;10.20;;;;;;;;;;4969429;28;20031;-71
2021/12/21 08:18:56;;;;;;;21.58;9.93;;;;;;;;;;4999322;28;20052;-74
2021/12/21 08:21:24;;;;;;;21.23;9.65;;;;;;;;;;5033529;28;20049;-73
2021/12/21 08:23:50;;;;;;;26.52;11.38;;;;;;;;;;5033446;28;20053;-71
2021/12/21 08:26:16;;;;;;;29.95;12.85;;;;;;;;;;5033319;28;20060;-70
2021/12/21 08:28:41;;;;;;;23.40;12.20;;;;;;;;;;5031505;28;20064;-70
2021/12/21 08:31:10;;;;;;;26.77;12.98;;;;;;;;;;5033310;28;20021;-70
2021/12/21 08:33:36;;;;;;;26.13;13.77;;;;;;;;;;5033057;28;20429;-71
2021/12/21 08:36:03;;;;;;;26.35;13.77;;;;;;;;;;5032975;28;20026;-70
2021/12/21 08:38:31;;;;;;;31.20;14.13;;;;;;;;;;5032680;28;20037;-71
2021/12/21 08:40:58;;;;;;;24.10;10.50;;;;;;;;;;5032987;28;20033;-71
2021/12/21 08:43:25;;;;;;;17.23;8.68;;;;;;;;;;5032950;28;20025;-68
2021/12/21 08:45:52;;;;;;;18.58;8.35;;;;;;;;;;5032900;28;20377;-70
2021/12/21 08:48:19;;;;;;;19.23;8.60;;;;;;;;;;5032512;28;20129;-70
2021/12/21 08:50:46;;;;;;;20.38;9.27;;;;;;;;;;5032692;28;20021;-68
2021/12/21 08:53:13;;;;;;;19.75;9.45;;;;;;;;;;5032779;28;20447;-68
2021/12/21 08:55:40;;;;;;;15.57;7.68;;;;;;;;;;5032657;28;20105;-70
2021/12/21 08:58:06;;;;;;;18.48;8.40;;;;;;;;;;5032398;28;20412;-72
2021/12/21 09:00:31;;;;;;;19.70;9.80;;;;;;;;;;5032794;28;20021;-73
2021/12/21 09:02:57;;;;;;;20.58;8.48;;;;;;;;;;5032699;28;20029;-70
2021/12/21 09:05:26;;;;;;;18.60;9.27;;;;;;;;;;5032440;28;20033;-73
2021/12/21 09:07:52;;;;;;;16.77;8.10;;;;;;;;;;5032303;28;20637;-73
2021/12/21 09:10:19;;;;;;;15.50;9.00;;;;;;;;;;5032366;28;20483;-69
2021/12/21 09:12:45;;;;;;;18.23;8.32;;;;;;;;;;5032360;28;20060;-74
2021/12/21 09:15:12;;;;;;;17.77;8.07;;;;;;;;;;5032458;28;20032;-69
2021/12/21 09:17:40;;;;;;;17.77;8.88;;;;;;;;;;5032404;28;20029;-72
2021/12/21 09:20:07;;;;;;;24.23;10.70;;;;;;;;;;5031941;28;20034;-69
2021/12/21 09:22:32;;;;;;;18.52;9.20;;;;;;;;;;5031740;28;20587;-70
2021/12/21 09:24:59;;;;;;;15.98;8.25;;;;;;;;;;5032081;28;20049;-71
2021/12/21 09:27:27;;;;;;;19.27;8.98;;;;;;;;;;5031450;28;20516;-71
2021/12/21 09:29:52;;;;;;;19.63;8.98;;;;;;;;;;5031834;28;20508;-71
2021/12/21 09:32:18;;;;;;;15.05;8.70;;;;;;;;;;5033872;28;20325;-72
2021/12/21 09:34:46;;;;;;;15.00;7.93;;;;;;;;;;5032267;28;20026;-69
2021/12/21 09:37:18;;;;;;;12.98;7.10;;;;;;;;;;5032214;28;20025;-69
2021/12/21 09:39:47;;;;;;;14.25;7.70;;;;;;;;;;5031696;28;20026;-71
2021/12/21 09:42:14;;;;;;;15.23;7.60;;;;;;;;;;5031841;28;20035;-71
2021/12/21 09:44:40;;;;;;;11.13;6.85;;;;;;;;;;5031754;28;20017;-71
2021/12/21 09:47:09;;;;;;;12.57;7.93;;;;;;;;;;5032068;28;20706;-72
2021/12/21 09:49:34;;;;;;;20.88;10.68;;;;;;;;;;5031424;28;20104;-70
2021/12/21 09:52:00;;;;;;;16.00;8.95;;;;;;;;;;5031724;28;20100;-72
2021/12/21 09:54:26;;;;;;;14.13;9.23;;;;;;;;;;5031798;28;20033;-74
2021/12/21 09:56:51;;;;;;;15.43;8.88;;;;;;;;;;5031454;28;20040;-69
2021/12/21 09:59:17;;;;;;;18.92;9.75;;;;;;;;;;5030609;28;20116;-72
2021/12/21 10:01:42;;;;;;;15.63;8.32;;;;;;;;;;5024449;28;20040;-72
2021/12/21 10:04:08;;;;;;;13.75;8.20;;;;;;;;;;5019472;28;20451;-73
2021/12/21 10:06:47;;;;;;;14.82;8.27;;;;;;;;;;5031232;28;20030;-74
2021/12/21 10:09:13;;;;;;;15.00;7.93;;;;;;;;;;5029797;28;20619;-73
2021/12/21 10:11:48;;;;;;;17.20;8.40;;;;;;;;;;5030851;28;20030;-73
2021/12/21 10:14:17;;;;;;;16.48;8.63;;;;;;;;;;5031128;28;20589;-73
2021/12/21 10:16:45;;;;;;;22.48;10.65;;;;;;;;;;5030739;28;20021;-71
2021/12/21 10:19:30;;;;;;;23.90;11.50;;;;;;;;;;5030384;28;20026;-73
2021/12/21 10:21:56;;;;;;;19.83;11.40;;;;;;;;;;5030573;28;20090;-74
2021/12/21 10:24:27;;;;;;;23.20;12.88;;;;;;;;;;5030772;28;20033;-71
2021/12/21 10:27:05;;;;;;;23.45;11.52;;;;;;;;;;5028634;28;20026;-76
2021/12/21 10:29:41;;;;;;;21.42;11.93;;;;;;;;;;5028734;28;20044;-73
2021/12/21 10:32:06;;;;;;;26.25;12.30;;;;;;;;;;5028265;28;20041;-73
2021/12/21 10:34:32;;;;;;;23.52;11.98;;;;;;;;;;5029269;28;20028;-73
2021/12/21 10:36:57;;;;;;;22.40;12.80;;;;;;;;;;5029072;28;20030;-75
2021/12/21 10:39:26;;;;;;;23.00;11.82;;;;;;;;;;5028677;28;20037;-73
2021/12/21 10:41:57;;;;;;;21.20;10.60;;;;;;;;;;5029208;28;20026;-73
2021/12/21 10:44:22;;;;;;;18.75;12.10;;;;;;;;;;5031008;28;20025;-73
2021/12/21 10:46:53;;;;;;;22.23;12.02;;;;;;;;;;5030987;28;20466;-73
2021/12/21 10:49:21;;;;;;;22.95;12.82;;;;;;;;;;5031210;28;20029;-74
2021/12/21 10:51:56;;;;;;;26.73;14.77;;;;;;;;;;5030583;28;20033;-74
2021/12/21 10:54:39;;;;;;;24.42;14.88;;;;;;;;;;5030492;28;20029;-73
2021/12/21 10:57:15;;;;;;;23.50;14.75;;;;;;;;;;5030512;28;20501;-73
2021/12/21 10:59:43;;;;;;;22.00;13.70;;;;;;;;;;5030250;28;20108;-73
2021/12/21 11:02:15;;;;;;;27.80;14.40;;;;;;;;;;5012633;28;20548;-72
2021/12/21 11:04:43;;;;;;;26.92;15.05;;;;;;;;;;5030446;28;20025;-71
2021/12/21 11:07:32;;;;;;;29.35;14.20;;;;;;;;;;5030122;28;20056;-72
2021/12/21 11:10:12;;;;;;;45.13;20.85;;;;;;;;;;5029928;28;20036;-73
2021/12/21 11:12:49;;;;;;;46.97;22.02;;;;;;;;;;5030124;28;20091;-73
2021/12/21 11:15:18;;;;;;;38.80;20.20;;;;;;;;;;5030530;28;20113;-73
2021/12/21 11:17:45;;;;;;;30.00;15.82;;;;;;;;;;5030202;28;20021;-73
2021/12/21 11:20:12;;;;;;;28.58;16.63;;;;;;;;;;5029837;28;20029;-74
2021/12/21 11:22:40;;;;;;;27.50;15.13;;;;;;;;;;5030114;28;20079;-74
2021/12/21 11:25:08;;;;;;;27.05;14.20;;;;;;;;;;5029881;28;20034;-74
2021/12/21 11:27:36;;;;;;;24.90;13.27;;;;;;;;;;5029955;28;20033;-73
2021/12/21 11:30:05;;;;;;;20.38;12.68;;;;;;;;;;5029893;28;20029;-72
2021/12/21 11:32:33;;;;;;;23.85;12.70;;;;;;;;;;5029028;28;20029;-71
2021/12/21 11:37:37;;;;;;;24.75;11.20;;;;;;;;;;5030098;28;20477;-73
2021/12/21 11:40:04;;;;;;;19.00;10.70;;;;;;;;;;5029199;28;20029;-74
2021/12/21 11:42:51;;;;;;;18.50;9.95;;;;;;;;;;5030005;28;20029;-74
2021/12/21 11:45:37;;;;;;;16.17;9.55;;;;;;;;;;5029927;28;20080;-73
2021/12/21 11:48:26;;;;;;;18.70;9.90;;;;;;;;;;5029903;28;20041;-73
2021/12/21 11:50:52;;;;;;;36.88;17.33;;;;;;;;;;5030167;28;20539;-73
2021/12/21 11:53:19;;;;;;;26.05;13.40;;;;;;;;;;5033958;28;20013;-73
2021/12/21 11:55:48;;;;;;;16.33;9.32;;;;;;;;;;5033874;28;20060;-72
2021/12/21 11:58:27;;;;;;;22.77;9.95;;;;;;;;;;5033814;28;20018;-73
2021/12/21 12:01:00;;;;;;;15.48;9.77;;;;;;;;;;5033646;28;20037;-72
2021/12/21 12:03:28;;;;;;;17.55;9.30;;;;;;;;;;5033726;28;20026;-70
2021/12/21 12:06:01;;;;;;;14.80;8.23;;;;;;;;;;5033687;28;20406;-68
2021/12/21 12:08:41;;;;;;;18.80;8.32;;;;;;;;;;5035458;28;20034;-70
2021/12/21 12:11:07;;;;;;;16.35;7.25;;;;;;;;;;5033128;28;20432;-75
2021/12/21 12:13:39;;;;;;;13.27;6.90;;;;;;;;;;5033578;28;20047;-70
2021/12/21 12:16:16;;;;;;;16.30;7.20;;;;;;;;;;5033531;28;20435;-71
2021/12/21 12:18:48;;;;;;;12.82;7.15;;;;;;;;;;5033405;28;20095;-70
2021/12/21 12:21:23;;;;;;;13.48;6.97;;;;;;;;;;5031716;28;20464;-70
2021/12/21 12:24:02;;;;;;;15.88;7.10;;;;;;;;;;5032111;28;20022;-73
2021/12/21 12:26:39;;;;;;;12.70;7.00;;;;;;;;;;5033110;28;20112;-71
2021/12/21 12:29:19;;;;;;;13.27;6.75;;;;;;;;;;5015251;28;20026;-71
2021/12/21 12:31:57;;;;;;;17.97;6.77;;;;;;;;;;5033206;28;20036;-71
2021/12/21 12:34:26;;;;;;;13.20;6.43;;;;;;;;;;5026086;28;20040;-73
2021/12/21 12:36:52;;;;;;;12.10;6.35;;;;;;;;;;5035744;28;20068;-73
2021/12/21 12:39:31;;;;;;;13.00;6.15;;;;;;;;;;5034371;28;20026;-71
2021/12/21 12:42:12;;;;;;;13.32;6.35;;;;;;;;;;5038120;28;20044;-70
2021/12/21 12:44:40;;;;;;;12.07;6.07;;;;;;;;;;5034503;28;20033;-74
2021/12/21 12:47:09;;;;;;;12.80;5.63;;;;;;;;;;5029821;28;20049;-69
2021/12/21 12:49:37;;;;;;;14.07;6.07;;;;;;;;;;5028500;28;20044;-74
2021/12/21 12:52:09;;;;;;;12.00;5.40;;;;;;;;;;5031231;28;20030;-70
2021/12/21 12:54:52;;;;;;;11.85;5.95;;;;;;;;;;5031450;28;20029;-67
2021/12/21 12:57:33;;;;;;;11.55;5.30;;;;;;;;;;5031381;28;20040;-69
2021/12/21 13:00:12;;;;;;;10.73;5.28;;;;;;;;;;5031383;28;20037;-69
2021/12/21 13:02:49;;;;;;;17.10;5.90;;;;;;;;;;5031389;28;20034;-70
2021/12/21 13:05:15;;;;;;;14.13;5.60;;;;;;;;;;5032791;28;20022;-71
2021/12/21 13:07:43;;;;;;;13.65;6.63;;;;;;;;;;5014883;28;20026;-73
2021/12/21 13:10:10;;;;;;;12.77;5.50;;;;;;;;;;5031894;28;20022;-73
2021/12/21 13:12:36;;;;;;;11.88;6.07;;;;;;;;;;5032290;28;20058;-70
2021/12/21 13:15:03;;;;;;;10.48;5.07;;;;;;;;;;5032615;28;20030;-70
2021/12/21 13:17:29;;;;;;;9.85;5.00;;;;;;;;;;5032280;28;20025;-69
2021/12/21 13:19:54;;;;;;;11.65;5.57;;;;;;;;;;5014464;28;20028;-69
2021/12/21 13:22:22;;;;;;;15.65;6.50;;;;;;;;;;5032202;28;20095;-72
2021/12/21 13:24:48;;;;;;;13.45;5.78;;;;;;;;;;5032112;28;20026;-73
2021/12/21 13:27:14;;;;;;;13.98;5.80;;;;;;;;;;5031856;28;20036;-74
2021/12/21 13:29:42;;;;;;;15.85;7.60;;;;;;;;;;5031958;28;20021;-72
2021/12/21 13:32:11;;;;;;;13.40;6.38;;;;;;;;;;5032341;28;20080;-69
2021/12/21 13:34:40;;;;;;;12.48;6.85;;;;;;;;;;5032059;28;20025;-70
2021/12/21 13:37:09;;;;;;;13.10;5.28;;;;;;;;;;5032241;28;20105;-73
2021/12/21 13:39:37;;;;;;;10.82;4.72;;;;;;;;;;5031972;28;20030;-71
2021/12/21 13:42:14;;;;;;;12.07;5.18;;;;;;;;;;5032040;28;20026;-72
2021/12/21 13:44:42;;;;;;;10.20;4.68;;;;;;;;;;5031695;28;20562;-68
2021/12/21 13:47:14;;;;;;;11.15;5.00;;;;;;;;;;5023126;28;20026;-70
2021/12/21 13:50:08;;;;;;;12.02;4.97;;;;;;;;;;5008686;28;20037;-71
2021/12/21 13:52:36;;;;;;;11.18;4.78;;;;;;;;;;5023466;28;20034;-71
2021/12/21 13:55:04;;;;;;;10.05;4.85;;;;;;;;;;5017306;28;20049;-71
2021/12/21 13:57:32;;;;;;;14.63;5.05;;;;;;;;;;5010615;28;20041;-71
2021/12/21 13:59:59;;;;;;;12.98;5.55;;;;;;;;;;5010214;28;20042;-71
2021/12/21 14:02:34;;;;;;;16.88;5.45;;;;;;;;;;5012498;28;20037;-71
2021/12/21 14:05:06;;;;;;;12.43;4.88;;;;;;;;;;5029918;28;20108;-69
2021/12/21 14:07:35;;;;;;;12.60;5.10;;;;;;;;;;5022746;28;20144;-71
2021/12/21 14:10:09;;;;;;;14.65;5.70;;;;;;;;;;5026926;28;20040;-70
2021/12/21 14:12:35;;;;;;;13.57;5.10;;;;;;;;;;5029641;28;20376;-69
2021/12/21 14:15:01;;;;;;;10.57;5.07;;;;;;;;;;5028291;28;20489;-70
2021/12/21 14:17:28;;;;;;;14.02;5.53;;;;;;;;;;5029729;28;20041;-69
2021/12/21 14:19:59;;;;;;;13.55;5.40;;;;;;;;;;5029384;28;20108;-70
2021/12/21 14:22:25;;;;;;;10.43;5.35;;;;;;;;;;5029936;28;20109;-68
2021/12/21 14:24:52;;;;;;;11.50;5.32;;;;;;;;;;5026767;28;20172;-69
2021/12/21 14:27:19;;;;;;;11.82;5.55;;;;;;;;;;5029138;28;20632;-71
2021/12/21 14:29:45;;;;;;;15.40;5.35;;;;;;;;;;5028998;28;20580;-69
2021/12/21 14:34:41;;;;;;;9.48;5.22;;;;;;;;;;5027144;28;20095;-67
2021/12/21 14:55:48;;;;;;;11.25;5.10;;;;;;;;;;5087567;28;20378;-67
2021/12/21 14:58:18;;;;;;;9.38;4.75;;;;;;;;;;5087884;28;20032;-66
2021/12/21 15:00:54;;;;;;;10.13;5.03;;;;;;;;;;5087253;28;20419;-68
2021/12/21 15:03:21;;;;;;;10.57;5.28;;;;;;;;;;5086195;28;20444;-67
2021/12/21 15:05:47;;;;;;;14.00;5.05;;;;;;;;;;5087382;28;20028;-65
2021/12/21 15:08:20;;;;;;;10.18;5.38;;;;;;;;;;5087384;28;20116;-65
2021/12/21 15:10:46;;;;;;;12.35;5.70;;;;;;;;;;5087106;28;20043;-64
2021/12/21 15:13:15;;;;;;;10.88;5.68;;;;;;;;;;5087275;28;20407;-67
2021/12/21 15:15:41;;;;;;;11.70;5.32;;;;;;;;;;5087185;28;20072;-66
2021/12/21 15:18:10;;;;;;;10.10;5.50;;;;;;;;;;5087269;28;20056;-67
2021/12/21 15:20:36;;;;;;;13.45;5.97;;;;;;;;;;5082067;28;20557;-67
2021/12/21 15:23:02;;;;;;;22.65;9.32;;;;;;;;;;5077889;28;20020;-68
2021/12/21 15:25:27;;;;;;;37.67;19.33;;;;;;;;;;5076282;28;20024;-66
2021/12/21 15:27:54;;;;;;;27.95;15.98;;;;;;;;;;5066792;28;20035;-66
2021/12/21 15:30:22;;;;;;;25.73;14.10;;;;;;;;;;5082156;28;20028;-67
2021/12/21 15:32:49;;;;;;;21.20;12.18;;;;;;;;;;5085934;28;20033;-66
2021/12/21 15:35:17;;;;;;;19.05;12.00;;;;;;;;;;5086804;28;20115;-66
2021/12/21 15:37:44;;;;;;;16.40;8.75;;;;;;;;;;5080974;28;20021;-67
2021/12/21 15:40:15;;;;;;;16.85;9.23;;;;;;;;;;5066395;28;20048;-67
2021/12/21 15:42:40;;;;;;;21.77;8.70;;;;;;;;;;5066187;28;20067;-67
2021/12/21 15:45:08;;;;;;;19.90;9.35;;;;;;;;;;5066383;28;20033;-67
2021/12/21 15:47:34;;;;;;;20.27;9.63;;;;;;;;;;5066284;28;20028;-70
2021/12/21 15:50:00;;;;;;;18.17;9.65;;;;;;;;;;5066280;28;20021;-70
2021/12/21 15:52:27;;;;;;;17.98;8.70;;;;;;;;;;5065875;28;20031;-67
2021/12/21 15:54:53;;;;;;;19.25;10.70;;;;;;;;;;5063741;28;20076;-66
2021/12/21 15:57:19;;;;;;;22.50;10.82;;;;;;;;;;5075276;28;20056;-66
2021/12/21 15:59:46;;;;;;;23.92;11.05;;;;;;;;;;5083598;28;20563;-65
2021/12/21 16:02:17;;;;;;;27.08;13.30;;;;;;;;;;5084828;28;20391;-66
2021/12/21 16:04:47;;;;;;;37.50;16.95;;;;;;;;;;5086202;28;20119;-65
2021/12/21 16:07:13;;;;;;;36.05;17.65;;;;;;;;;;5072712;28;20614;-68
2021/12/21 16:09:39;;;;;;;46.03;22.27;;;;;;;;;;5072716;28;20052;-68
2021/12/21 16:12:05;;;;;;;49.95;24.40;;;;;;;;;;5072491;28;20056;-67
2021/12/21 16:14:30;;;;;;;52.45;25.42;;;;;;;;;;5072668;28;20060;-67